Time;durP1;ratioP1;P1;durP2;ratioP2;P2;SDS_P1;SDS_P2;PMS_P1;PMS_P2;Temp;Humidity;BMP_temperature;BMP_pressure;BME280_temperature;BME280_humidity;BME280_pressure;Samples;Min_cycle;Max_cycle;Signal;HPM_P1;HPM_P2
2023/04/24 00:02:34;;;;;;;;;;;21.70;52.30;;;;;;4877306;55;20088;-29
2023/04/24 00:07:35;;;;;;;;;;;21.70;52.30;;;;;;4767536;55;20084;-28
2023/04/24 00:12:36;;;;;;;;;;;21.60;52.30;;;;;;4833288;55;20339;-28
2023/04/24 00:17:37;;;;;;;;;;;21.70;52.30;;;;;;4814759;55;20120;-28
2023/04/24 00:22:37;;;;;;;;;;;21.70;52.40;;;;;;4794962;55;20311;-28
2023/04/24 00:27:38;;;;;;;;;;;21.70;52.50;;;;;;4820135;55;20327;-28
2023/04/24 00:32:39;;;;;;;;;;;21.70;52.40;;;;;;4745488;58;20057;-28
2023/04/24 00:37:40;;;;;;;;;;;21.70;52.40;;;;;;4910066;55;20084;-27
2023/04/24 00:42:40;;;;;;;;;;;21.70;52.40;;;;;;4770440;55;20128;-28
2023/04/24 00:47:41;;;;;;;;;;;21.70;52.40;;;;;;4779286;55;20064;-30
2023/04/24 00:52:42;;;;;;;;;;;21.70;52.50;;;;;;4764138;55;20141;-28
2023/04/24 00:57:45;;;;;;;;;;;21.70;52.50;;;;;;4778716;55;20331;-28
2023/04/24 01:02:45;;;;;;;;;;;21.70;52.50;;;;;;4770533;55;20359;-26
2023/04/24 01:07:48;;;;;;;;;;;21.60;52.40;;;;;;4746356;58;20068;-28
2023/04/24 01:12:49;;;;;;;;;;;21.70;52.50;;;;;;4766178;55;20363;-31
2023/04/24 01:17:50;;;;;;;;;;;21.70;52.50;;;;;;4847780;55;20306;-28
2023/04/24 01:22:51;;;;;;;;;;;21.70;52.50;;;;;;4746461;58;20073;-29
2023/04/24 01:27:52;;;;;;;;;;;21.70;52.50;;;;;;4783757;55;20088;-30
2023/04/24 01:32:53;;;;;;;;;;;21.70;52.60;;;;;;4751094;55;20368;-29
2023/04/24 01:37:54;;;;;;;;;;;21.70;52.50;;;;;;4885108;55;20084;-29
2023/04/24 01:42:55;;;;;;;;;;;21.70;52.60;;;;;;4769288;55;20084;-28
2023/04/24 01:47:56;;;;;;;;;;;21.70;52.50;;;;;;4776083;55;20275;-30
2023/04/24 01:52:56;;;;;;;;;;;21.70;52.50;;;;;;4792696;55;20060;-27
2023/04/24 01:57:59;;;;;;;;;;;21.60;52.50;;;;;;4746574;55;20159;-28
2023/04/24 02:03:01;;;;;;;;;;;21.70;52.60;;;;;;4851704;55;20113;-28
2023/04/24 02:08:02;;;;;;;;;;;21.70;52.60;;;;;;4771081;55;20349;-29
2023/04/24 02:13:02;;;;;;;;;;;21.70;52.60;;;;;;4841859;55;20120;-32
2023/04/24 02:18:03;;;;;;;;;;;21.70;52.60;;;;;;4746634;58;20112;-25
2023/04/24 02:23:04;;;;;;;;;;;21.70;52.50;;;;;;4746469;58;20109;-28
2023/04/24 02:28:04;;;;;;;;;;;21.60;52.60;;;;;;4852404;55;20065;-31
2023/04/24 02:33:05;;;;;;;;;;;21.70;52.60;;;;;;4745746;58;20286;-28
2023/04/24 02:38:06;;;;;;;;;;;21.70;52.60;;;;;;4822317;55;20072;-28
2023/04/24 02:43:09;;;;;;;;;;;21.70;52.60;;;;;;4746889;56;20068;-30
2023/04/24 02:48:09;;;;;;;;;;;21.70;52.60;;;;;;4792848;55;20116;-30
2023/04/24 02:53:10;;;;;;;;;;;21.70;52.70;;;;;;4802697;55;20354;-29
2023/04/24 02:58:12;;;;;;;;;;;21.70;52.60;;;;;;4746954;55;20088;-32
2023/04/24 03:03:13;;;;;;;;;;;21.70;52.70;;;;;;4819521;55;20294;-30
2023/04/24 03:08:14;;;;;;;;;;;21.70;52.70;;;;;;4746591;58;20299;-30
2023/04/24 03:13:16;;;;;;;;;;;21.70;52.70;;;;;;4745741;58;20060;-28
2023/04/24 03:18:16;;;;;;;;;;;21.70;52.70;;;;;;4807186;55;20072;-31
2023/04/24 03:23:17;;;;;;;;;;;21.70;52.70;;;;;;4820165;55;20113;-27
2023/04/24 03:28:17;;;;;;;;;;;21.70;52.70;;;;;;4828785;55;20069;-28
2023/04/24 03:33:18;;;;;;;;;;;21.70;52.70;;;;;;4745833;58;20116;-27
2023/04/24 03:38:19;;;;;;;;;;;21.60;52.70;;;;;;4795402;55;20297;-29
2023/04/24 03:43:19;;;;;;;;;;;21.70;52.70;;;;;;4759047;55;20065;-28
2023/04/24 03:48:23;;;;;;;;;;;21.70;52.80;;;;;;4777207;55;20136;-30
2023/04/24 03:53:23;;;;;;;;;;;21.70;52.90;;;;;;4763201;55;20116;-27
2023/04/24 03:58:24;;;;;;;;;;;21.70;53.00;;;;;;4746306;58;20154;-27
2023/04/24 04:03:25;;;;;;;;;;;21.60;52.90;;;;;;4746482;56;20192;-28
2023/04/24 04:08:26;;;;;;;;;;;21.70;53.00;;;;;;4786158;55;20315;-28
2023/04/24 04:13:26;;;;;;;;;;;21.60;53.00;;;;;;4833191;55;20112;-26
2023/04/24 04:18:27;;;;;;;;;;;21.70;53.10;;;;;;4746749;58;20091;-28
2023/04/24 04:23:28;;;;;;;;;;;21.60;53.10;;;;;;4793250;55;20068;-30
2023/04/24 04:28:31;;;;;;;;;;;21.60;53.10;;;;;;4800480;55;20084;-29
2023/04/24 04:33:32;;;;;;;;;;;21.60;53.20;;;;;;4806748;55;20108;-29
2023/04/24 04:38:33;;;;;;;;;;;21.70;53.20;;;;;;4769070;55;20318;-28
2023/04/24 04:43:34;;;;;;;;;;;21.60;53.20;;;;;;4842027;55;20283;-29
2023/04/24 04:48:35;;;;;;;;;;;21.60;53.10;;;;;;4756043;55;20303;-26
2023/04/24 04:53:35;;;;;;;;;;;21.60;53.10;;;;;;4745345;58;20063;-26
2023/04/24 04:58:36;;;;;;;;;;;21.60;53.40;;;;;;4784692;55;20069;-25
2023/04/24 05:03:37;;;;;;;;;;;21.70;53.20;;;;;;4824594;55;20124;-28
2023/04/24 05:08:37;;;;;;;;;;;21.60;53.20;;;;;;4796352;55;20108;-30
2023/04/24 05:13:38;;;;;;;;;;;21.60;53.20;;;;;;4745634;58;20060;-28
2023/04/24 05:18:38;;;;;;;;;;;21.60;53.10;;;;;;4752489;55;20109;-30
2023/04/24 05:23:39;;;;;;;;;;;21.60;53.20;;;;;;4807021;55;20072;-31
2023/04/24 05:28:40;;;;;;;;;;;21.70;53.20;;;;;;4746402;55;20109;-28
2023/04/24 05:33:41;;;;;;;;;;;21.70;53.20;;;;;;4776623;55;20335;-26
2023/04/24 05:38:42;;;;;;;;;;;21.70;53.20;;;;;;4819686;55;20072;-29
2023/04/24 05:43:43;;;;;;;;;;;21.60;53.10;;;;;;4746555;58;20062;-30
2023/04/24 05:48:45;;;;;;;;;;;21.60;53.10;;;;;;4752018;55;20163;-28
2023/04/24 05:53:46;;;;;;;;;;;21.70;53.10;;;;;;4762565;55;20346;-32
2023/04/24 05:58:46;;;;;;;;;;;21.70;53.10;;;;;;4748033;55;20064;-28
2023/04/24 06:03:47;;;;;;;;;;;21.60;53.10;;;;;;4801505;55;20059;-29
2023/04/24 06:08:48;;;;;;;;;;;21.60;53.10;;;;;;4794447;55;20073;-28
2023/04/24 06:13:48;;;;;;;;;;;21.60;53.00;;;;;;4813131;55;20112;-30
2023/04/24 06:18:50;;;;;;;;;;;21.60;53.00;;;;;;4746709;58;20116;-28
2023/04/24 06:23:51;;;;;;;;;;;21.60;53.00;;;;;;4755900;55;20353;-29
2023/04/24 06:28:53;;;;;;;;;;;21.70;53.10;;;;;;4796569;55;20068;-31
2023/04/24 06:33:54;;;;;;;;;;;21.60;53.00;;;;;;4799171;55;20961;-27
2023/04/24 06:38:55;;;;;;;;;;;21.70;53.10;;;;;;4812328;55;20070;-28
2023/04/24 06:43:55;;;;;;;;;;;21.60;53.00;;;;;;4772845;55;20307;-26
2023/04/24 06:48:56;;;;;;;;;;;21.70;53.10;;;;;;4761550;55;20169;-27
2023/04/24 06:53:58;;;;;;;;;;;21.70;53.10;;;;;;4767474;55;20379;-24
2023/04/24 06:58:58;;;;;;;;;;;21.70;53.30;;;;;;4743406;58;20310;-26
2023/04/24 07:03:59;;;;;;;;;;;21.70;53.70;;;;;;4761398;55;20060;-25
2023/04/24 07:09:01;;;;;;;;;;;21.80;55.00;;;;;;4749600;55;20318;-28
2023/04/24 07:14:01;;;;;;;;;;;21.80;55.10;;;;;;4751581;55;20825;-26
2023/04/24 07:19:03;;;;;;;;;;;21.80;55.00;;;;;;4746533;55;20806;-26
2023/04/24 07:24:03;;;;;;;;;;;21.90;55.00;;;;;;4765153;55;20216;-27
2023/04/24 07:29:04;;;;;;;;;;;21.90;55.20;;;;;;4756074;55;20402;-29
2023/04/24 07:34:05;;;;;;;;;;;21.90;55.20;;;;;;4755357;55;20136;-30
2023/04/24 07:39:05;;;;;;;;;;;22.00;55.40;;;;;;4745062;58;20379;-34
2023/04/24 07:44:06;;;;;;;;;;;22.00;55.40;;;;;;4744465;58;20108;-27
2023/04/24 07:49:07;;;;;;;;;;;22.00;55.40;;;;;;4744561;58;20064;-27
2023/04/24 07:54:07;;;;;;;;;;;22.00;55.60;;;;;;4804462;55;20355;-28
2023/04/24 07:59:11;;;;;;;;;;;22.00;55.70;;;;;;4768402;55;20116;-26
2023/04/24 08:04:12;;;;;;;;;;;22.10;55.80;;;;;;4766154;55;20303;-29
2023/04/24 08:09:12;;;;;;;;;;;22.10;55.80;;;;;;4744255;58;20136;-29
2023/04/24 08:14:14;;;;;;;;;;;22.10;55.90;;;;;;4745006;55;20131;-24
2023/04/24 08:19:15;;;;;;;;;;;22.10;56.00;;;;;;4744481;58;20363;-28
2023/04/24 08:24:16;;;;;;;;;;;22.10;56.00;;;;;;4746475;55;20100;-27
2023/04/24 08:29:16;;;;;;;;;;;22.20;56.20;;;;;;4765240;55;20121;-27
2023/04/24 08:34:17;;;;;;;;;;;22.20;56.70;;;;;;4746974;55;20112;-27
2023/04/24 08:39:18;;;;;;;;;;;22.20;56.10;;;;;;4807601;55;20120;-27
2023/04/24 08:44:19;;;;;;;;;;;22.10;55.10;;;;;;4758999;55;20123;-27
2023/04/24 08:49:20;;;;;;;;;;;22.10;55.80;;;;;;4745730;55;20073;-26
2023/04/24 08:54:21;;;;;;;;;;;22.10;56.40;;;;;;4783775;55;20080;-24
2023/04/24 08:59:21;;;;;;;;;;;22.10;56.40;;;;;;4744193;58;20140;-30
2023/04/24 09:04:26;;;;;;;;;;;22.10;56.70;;;;;;4779331;55;20108;-27
2023/04/24 09:09:29;;;;;;;;;;;22.10;56.70;;;;;;4762955;55;20136;-26
2023/04/24 09:14:31;;;;;;;;;;;22.20;56.80;;;;;;4744264;58;20088;-28
2023/04/24 09:19:32;;;;;;;;;;;22.10;57.00;;;;;;4744917;58;20298;-22
2023/04/24 09:24:33;;;;;;;;;;;22.20;56.90;;;;;;4755310;55;20128;-27
2023/04/24 09:29:34;;;;;;;;;;;22.20;57.00;;;;;;4758839;55;20084;-25
2023/04/24 09:34:35;;;;;;;;;;;22.20;57.20;;;;;;4758420;55;20406;-27
2023/04/24 09:39:35;;;;;;;;;;;22.20;57.20;;;;;;4786496;55;20157;-25
2023/04/24 09:44:36;;;;;;;;;;;22.20;57.30;;;;;;4751217;55;20557;-29
2023/04/24 09:49:39;;;;;;;;;;;22.20;57.20;;;;;;4768544;55;20120;-31
2023/04/24 09:54:39;;;;;;;;;;;22.20;57.10;;;;;;4784617;55;20508;-32
2023/04/24 09:59:45;;;;;;;;;;;22.20;57.20;;;;;;4776918;55;20096;-26
2023/04/24 10:04:59;;;;;;;;;;;22.20;57.10;;;;;;4744029;58;20182;-33
2023/04/24 10:10:00;;;;;;;;;;;22.20;57.10;;;;;;4749257;55;20295;-24
2023/04/24 10:15:01;;;;;;;;;;;22.20;57.20;;;;;;4746471;55;20053;-24
2023/04/24 10:20:03;;;;;;;;;;;22.20;57.20;;;;;;4769015;55;20353;-29
2023/04/24 10:25:05;;;;;;;;;;;22.20;57.20;;;;;;4757951;55;20064;-31
2023/04/24 10:30:06;;;;;;;;;;;22.20;57.10;;;;;;4752817;55;20072;-26
2023/04/24 10:35:08;;;;;;;;;;;22.20;57.30;;;;;;4762408;55;20307;-28
2023/04/24 10:40:09;;;;;;;;;;;22.20;57.20;;;;;;4758758;55;20068;-31
2023/04/24 10:45:17;;;;;;;;;;;22.20;57.20;;;;;;4742296;58;20091;-28
2023/04/24 10:50:18;;;;;;;;;;;22.20;57.10;;;;;;4742321;55;20097;-28
2023/04/24 10:55:37;;;;;;;;;;;22.10;57.00;;;;;;4743654;58;20077;-30
2023/04/24 11:00:39;;;;;;;;;;;22.10;57.10;;;;;;4779009;55;20080;-30
2023/04/24 11:05:50;;;;;;;;;;;22.10;57.00;;;;;;4795536;55;20096;-31
2023/04/24 11:11:07;;;;;;;;;;;22.10;57.10;;;;;;4747066;55;20565;-29
2023/04/24 11:16:24;;;;;;;;;;;22.10;57.00;;;;;;4768772;55;20164;-29
2023/04/24 11:21:26;;;;;;;;;;;22.10;57.00;;;;;;4767907;55;20314;-29
2023/04/24 11:26:30;;;;;;;;;;;22.10;57.00;;;;;;4745568;58;20294;-26
2023/04/24 11:31:41;;;;;;;;;;;22.10;57.00;;;;;;4778493;55;20072;-25
2023/04/24 11:36:45;;;;;;;;;;;22.10;56.90;;;;;;4745172;58;20302;-28
2023/04/24 11:41:46;;;;;;;;;;;22.00;56.90;;;;;;4749162;55;20291;-32
2023/04/24 11:46:46;;;;;;;;;;;22.00;56.80;;;;;;4744577;58;20124;-28
2023/04/24 11:51:47;;;;;;;;;;;22.00;57.10;;;;;;4764950;55;20326;-26
2023/04/24 11:56:49;;;;;;;;;;;22.00;56.80;;;;;;4750002;55;20052;-25
2023/04/24 12:01:50;;;;;;;;;;;22.00;56.80;;;;;;4758777;55;20084;-27
2023/04/24 12:07:03;;;;;;;;;;;22.00;56.80;;;;;;4775401;55;20303;-28
2023/04/24 12:12:06;;;;;;;;;;;22.00;56.80;;;;;;4746901;55;20335;-29
2023/04/24 12:17:06;;;;;;;;;;;22.00;56.80;;;;;;4753754;55;20073;-28
2023/04/24 12:22:07;;;;;;;;;;;22.00;56.80;;;;;;4752755;55;20287;-25
2023/04/24 12:27:18;;;;;;;;;;;22.00;56.90;;;;;;4755276;55;20180;-24
2023/04/24 12:32:18;;;;;;;;;;;22.10;57.50;;;;;;4742719;58;20076;-27
2023/04/24 12:37:19;;;;;;;;;;;22.10;58.00;;;;;;4775554;55;20296;-29
2023/04/24 12:42:25;;;;;;;;;;;22.20;58.20;;;;;;4763564;55;20136;-23
2023/04/24 12:47:27;;;;;;;;;;;22.20;58.40;;;;;;4744070;55;20100;-24
2023/04/24 12:52:29;;;;;;;;;;;22.20;58.50;;;;;;4754887;55;20092;-23
2023/04/24 12:57:30;;;;;;;;;;;22.20;58.60;;;;;;4768976;55;20100;-24
2023/04/24 13:02:31;;;;;;;;;;;22.20;58.70;;;;;;4753537;55;20316;-27
2023/04/24 13:07:31;;;;;;;;;;;22.30;58.90;;;;;;4743484;58;20105;-26
2023/04/24 13:12:32;;;;;;;;;;;22.30;59.00;;;;;;4754565;55;20060;-27
2023/04/24 13:17:33;;;;;;;;;;;22.30;59.10;;;;;;4782808;55;20323;-24
2023/04/24 13:22:33;;;;;;;;;;;22.30;59.30;;;;;;4802656;55;20368;-24
2023/04/24 13:27:34;;;;;;;;;;;22.30;59.30;;;;;;4755081;55;20072;-25
2023/04/24 13:32:35;;;;;;;;;;;22.40;59.40;;;;;;4744319;55;20117;-29
2023/04/24 13:37:35;;;;;;;;;;;22.30;59.00;;;;;;4788265;55;20166;-29
2023/04/24 13:42:36;;;;;;;;;;;22.30;59.20;;;;;;4785499;55;20113;-28
2023/04/24 13:47:37;;;;;;;;;;;22.30;59.30;;;;;;4741914;58;20076;-28
2023/04/24 13:52:37;;;;;;;;;;;22.20;59.30;;;;;;4747395;55;20124;-27
2023/04/24 13:57:38;;;;;;;;;;;22.20;59.40;;;;;;4777418;55;20370;-29
2023/04/24 14:02:39;;;;;;;;;;;22.20;59.40;;;;;;4806790;55;20199;-26
2023/04/24 14:07:39;;;;;;;;;;;22.20;59.50;;;;;;4788795;55;20168;-27
2023/04/24 14:12:40;;;;;;;;;;;22.20;59.40;;;;;;4745714;58;20061;-27
2023/04/24 14:17:41;;;;;;;;;;;22.20;59.40;;;;;;4826653;55;20072;-28
2023/04/24 14:22:42;;;;;;;;;;;22.10;60.20;;;;;;4763833;55;20307;-27
2023/04/24 14:27:43;;;;;;;;;;;22.10;60.00;;;;;;4820583;55;20063;-28
2023/04/24 14:32:43;;;;;;;;;;;22.10;59.40;;;;;;4745951;58;20176;-30
2023/04/24 14:37:44;;;;;;;;;;;22.10;59.30;;;;;;4756248;55;20069;-29
2023/04/24 14:42:45;;;;;;;;;;;22.10;59.40;;;;;;4746549;58;20124;-27
2023/04/24 14:47:46;;;;;;;;;;;22.10;59.50;;;;;;4746498;58;20296;-28
2023/04/24 14:52:46;;;;;;;;;;;22.10;59.40;;;;;;4762435;55;20072;-28
2023/04/24 14:57:47;;;;;;;;;;;22.10;59.40;;;;;;4746478;58;20068;-27
2023/04/24 15:02:48;;;;;;;;;;;22.10;59.40;;;;;;4771747;55;20298;-29
2023/04/24 15:07:49;;;;;;;;;;;22.10;60.10;;;;;;4781973;55;20068;-29
2023/04/24 15:12:51;;;;;;;;;;;22.10;59.50;;;;;;4760179;55;20064;-30
2023/04/24 15:17:51;;;;;;;;;;;22.10;59.50;;;;;;4746570;58;20052;-28
2023/04/24 15:22:52;;;;;;;;;;;22.10;59.40;;;;;;4746650;58;20347;-27
2023/04/24 15:27:53;;;;;;;;;;;22.10;59.50;;;;;;4772417;55;20076;-28
2023/04/24 15:32:53;;;;;;;;;;;22.10;59.50;;;;;;4761933;55;20060;-26
2023/04/24 15:37:54;;;;;;;;;;;22.10;59.40;;;;;;4746202;58;20116;-28
2023/04/24 15:42:55;;;;;;;;;;;22.10;59.30;;;;;;4746283;58;20291;-31
2023/04/24 15:47:56;;;;;;;;;;;22.00;59.40;;;;;;4746753;55;20104;-28
2023/04/24 15:52:57;;;;;;;;;;;22.00;59.30;;;;;;4798524;55;20081;-31
2023/04/24 15:57:57;;;;;;;;;;;22.00;59.30;;;;;;4783106;55;20063;-28
2023/04/24 16:02:59;;;;;;;;;;;22.00;59.30;;;;;;4775888;55;20109;-33
2023/04/24 16:07:59;;;;;;;;;;;22.10;59.40;;;;;;4749252;55;20140;-26
2023/04/24 16:13:02;;;;;;;;;;;22.00;59.40;;;;;;4750930;55;20296;-27
2023/04/24 16:18:02;;;;;;;;;;;22.00;59.40;;;;;;4746520;58;20303;-27
2023/04/24 16:23:03;;;;;;;;;;;22.00;59.40;;;;;;4794811;55;20172;-30
2023/04/24 16:28:04;;;;;;;;;;;22.00;59.30;;;;;;4765363;55;20116;-28
2023/04/24 16:33:06;;;;;;;;;;;22.00;59.30;;;;;;4759224;55;20060;-29
2023/04/24 16:38:07;;;;;;;;;;;22.00;59.20;;;;;;4743911;58;20343;-28
2023/04/24 16:43:07;;;;;;;;;;;22.00;59.20;;;;;;4745220;58;20076;-30
2023/04/24 16:48:10;;;;;;;;;;;22.00;59.30;;;;;;4774045;55;20080;-32
2023/04/24 16:53:11;;;;;;;;;;;22.00;59.10;;;;;;4776145;55;20120;-26
2023/04/24 16:58:11;;;;;;;;;;;22.00;58.80;;;;;;4758964;55;20267;-28
2023/04/24 17:03:12;;;;;;;;;;;22.00;59.10;;;;;;4745973;58;20108;-28
2023/04/24 17:08:13;;;;;;;;;;;22.00;59.00;;;;;;4777044;55;20081;-32
2023/04/24 17:13:13;;;;;;;;;;;22.00;59.00;;;;;;4745384;58;20116;-28
2023/04/24 17:18:14;;;;;;;;;;;22.00;59.10;;;;;;4750593;55;20104;-27
2023/04/24 17:23:15;;;;;;;;;;;22.00;59.00;;;;;;4746247;58;20184;-27
2023/04/24 17:28:53;;;;;;;;;;;22.00;59.00;;;;;;4816823;55;20069;-29
2023/04/24 17:33:53;;;;;;;;;;;22.00;59.00;;;;;;4894673;55;20374;-32
2023/04/24 17:38:54;;;;;;;;;;;22.00;58.80;;;;;;4794373;55;20057;-31
2023/04/24 17:43:55;;;;;;;;;;;22.00;58.80;;;;;;4746388;58;20057;-27
2023/04/24 17:48:55;;;;;;;;;;;22.00;58.80;;;;;;4747206;55;20108;-28
2023/04/24 17:53:56;;;;;;;;;;;22.00;58.80;;;;;;4770496;55;20109;-28
2023/04/24 17:58:58;;;;;;;;;;;22.00;59.40;;;;;;4790822;55;20068;-30
2023/04/24 18:03:59;;;;;;;;;;;22.00;58.80;;;;;;4858172;55;20317;-29
2023/04/24 18:09:00;;;;;;;;;;;22.00;58.80;;;;;;4746340;58;20052;-27
2023/04/24 18:14:00;;;;;;;;;;;22.00;58.80;;;;;;4804428;55;20072;-28
2023/04/24 18:19:04;;;;;;;;;;;22.10;58.90;;;;;;4775967;55;20072;-29
2023/04/24 18:24:05;;;;;;;;;;;22.00;58.90;;;;;;4747606;55;20092;-28
2023/04/24 18:29:05;;;;;;;;;;;22.10;58.80;;;;;;4881118;55;20157;-29
2023/04/24 18:34:06;;;;;;;;;;;22.00;58.90;;;;;;4745404;58;20108;-28
2023/04/24 18:39:07;;;;;;;;;;;22.00;58.80;;;;;;4761499;55;20064;-40
2023/04/24 18:44:10;;;;;;;;;;;22.00;58.80;;;;;;4746465;58;20307;-29
2023/04/24 18:49:11;;;;;;;;;;;22.00;58.80;;;;;;4746420;58;20124;-29
2023/04/24 18:54:11;;;;;;;;;;;22.00;58.80;;;;;;4808371;55;20065;-30
2023/04/24 18:59:12;;;;;;;;;;;22.00;58.80;;;;;;4745978;58;20118;-29
2023/04/24 19:04:12;;;;;;;;;;;22.00;58.80;;;;;;4819258;55;20319;-29
2023/04/24 19:09:13;;;;;;;;;;;22.00;58.80;;;;;;4770262;55;20124;-30
2023/04/24 19:14:15;;;;;;;;;;;22.00;58.90;;;;;;4794352;55;20061;-28
2023/04/24 19:19:16;;;;;;;;;;;22.00;58.80;;;;;;4829925;55;20374;-28
2023/04/24 19:24:20;;;;;;;;;;;22.00;58.90;;;;;;4769215;55;20117;-28
2023/04/24 19:29:20;;;;;;;;;;;22.00;58.90;;;;;;4772767;55;21042;-30
2023/04/24 19:34:21;;;;;;;;;;;22.00;58.90;;;;;;4763436;55;20072;-28
2023/04/24 19:39:22;;;;;;;;;;;22.00;58.90;;;;;;4807659;55;20057;-29
2023/04/24 19:44:24;;;;;;;;;;;22.00;58.90;;;;;;4775245;55;20120;-30
2023/04/24 19:49:24;;;;;;;;;;;22.00;59.00;;;;;;4746506;58;20343;-30
2023/04/24 19:54:25;;;;;;;;;;;22.00;59.00;;;;;;4791075;55;20212;-28
2023/04/24 19:59:26;;;;;;;;;;;22.00;59.10;;;;;;4766491;55;20120;-31
2023/04/24 20:04:26;;;;;;;;;;;22.00;59.00;;;;;;4798822;55;20117;-28
2023/04/24 20:09:27;;;;;;;;;;;22.00;59.10;;;;;;4746642;58;20152;-28
2023/04/24 20:14:27;;;;;;;;;;;22.00;59.00;;;;;;4750371;55;20321;-28
2023/04/24 20:19:28;;;;;;;;;;;22.00;59.00;;;;;;4748441;55;20068;-27
2023/04/24 20:24:29;;;;;;;;;;;22.00;59.00;;;;;;4780027;55;20116;-27
2023/04/24 20:29:30;;;;;;;;;;;22.00;59.10;;;;;;4747624;55;20310;-27
2023/04/24 20:34:31;;;;;;;;;;;22.00;59.00;;;;;;4832907;55;20057;-28
2023/04/24 20:39:33;;;;;;;;;;;22.00;59.00;;;;;;4762019;55;20357;-28
2023/04/24 20:44:33;;;;;;;;;;;22.00;59.00;;;;;;4804694;55;20076;-26
2023/04/24 20:49:35;;;;;;;;;;;22.00;59.10;;;;;;4957109;55;20356;-29
2023/04/24 20:54:36;;;;;;;;;;;22.00;59.10;;;;;;4761883;55;20131;-28
2023/04/24 20:59:37;;;;;;;;;;;22.00;59.40;;;;;;4770087;55;20267;-28
2023/04/24 21:04:38;;;;;;;;;;;22.00;59.10;;;;;;4807385;55;20116;-28
2023/04/24 21:09:39;;;;;;;;;;;22.00;59.10;;;;;;4860940;55;20422;-29
2023/04/24 21:14:40;;;;;;;;;;;22.00;59.10;;;;;;4795600;55;20056;-29
2023/04/24 21:19:41;;;;;;;;;;;22.00;59.20;;;;;;4881818;55;20064;-29
2023/04/24 21:24:42;;;;;;;;;;;22.00;59.20;;;;;;4860375;55;20062;-31
2023/04/24 21:29:43;;;;;;;;;;;22.00;59.20;;;;;;4851854;55;20287;-27
2023/04/24 21:34:46;;;;;;;;;;;22.00;59.20;;;;;;4770942;55;20092;-32
2023/04/24 21:39:47;;;;;;;;;;;22.00;59.20;;;;;;4884001;55;20145;-28
2023/04/24 21:44:47;;;;;;;;;;;22.00;59.20;;;;;;4797867;55;20060;-24
2023/04/24 21:49:48;;;;;;;;;;;22.00;59.20;;;;;;4786390;55;20064;-28
2023/04/24 21:54:49;;;;;;;;;;;22.00;59.20;;;;;;4869928;55;20512;-29
2023/04/24 21:59:50;;;;;;;;;;;22.00;59.20;;;;;;4746668;58;20072;-27
2023/04/24 22:04:51;;;;;;;;;;;22.00;59.20;;;;;;4746510;58;20279;-28
2023/04/24 22:09:52;;;;;;;;;;;22.00;59.20;;;;;;4846570;55;20346;-27
2023/04/24 22:14:54;;;;;;;;;;;22.00;59.20;;;;;;4761697;55;20072;-27
2023/04/24 22:19:56;;;;;;;;;;;22.00;59.20;;;;;;4746897;55;20306;-24
2023/04/24 22:24:56;;;;;;;;;;;22.00;59.30;;;;;;4746404;56;20335;-28
2023/04/24 22:29:57;;;;;;;;;;;22.00;59.30;;;;;;4845835;55;20052;-28
2023/04/24 22:34:58;;;;;;;;;;;22.00;59.30;;;;;;4791875;55;20314;-26
2023/04/24 22:40:00;;;;;;;;;;;22.00;59.30;;;;;;4881670;55;20087;-27
2023/04/24 22:45:00;;;;;;;;;;;22.00;59.40;;;;;;4748120;55;20290;-27
2023/04/24 22:50:02;;;;;;;;;;;22.00;59.30;;;;;;4775641;55;20104;-26
2023/04/24 22:55:03;;;;;;;;;;;22.00;59.30;;;;;;4756866;55;20298;-28
2023/04/24 23:00:09;;;;;;;;;;;22.00;59.30;;;;;;4776212;55;20068;-27
2023/04/24 23:05:10;;;;;;;;;;;22.00;59.30;;;;;;4808398;55;20287;-28
2023/04/24 23:10:11;;;;;;;;;;;22.00;59.40;;;;;;4746436;56;20168;-27
2023/04/24 23:15:11;;;;;;;;;;;22.00;59.40;;;;;;4786236;55;20072;-28
2023/04/24 23:20:13;;;;;;;;;;;22.00;59.30;;;;;;4751613;55;20299;-32
2023/04/24 23:25:13;;;;;;;;;;;22.00;59.30;;;;;;4772240;55;20272;-27
2023/04/24 23:30:14;;;;;;;;;;;22.00;59.50;;;;;;4745990;58;20092;-30
2023/04/24 23:35:15;;;;;;;;;;;22.00;59.40;;;;;;4746792;58;20422;-28
2023/04/24 23:40:15;;;;;;;;;;;22.00;59.40;;;;;;4876911;55;20072;-27
2023/04/24 23:45:16;;;;;;;;;;;22.00;59.40;;;;;;4765096;55;20311;-34
2023/04/24 23:50:17;;;;;;;;;;;22.00;59.40;;;;;;4760229;55;20393;-30
2023/04/24 23:55:17;;;;;;;;;;;22.00;59.40;;;;;;4849715;55;20382;-29
